createdAt,value
2023-01-15T00:00:42.572Z,0.00
2023-01-15T00:01:41.846Z,0.00
2023-01-15T00:02:41.855Z,0.00
2023-01-15T00:03:41.827Z,0.00
2023-01-15T00:04:41.810Z,0.00
2023-01-15T00:05:41.792Z,0.00
2023-01-15T00:06:41.784Z,0.00
2023-01-15T00:07:41.777Z,0.00
2023-01-15T00:08:41.765Z,0.00
2023-01-15T00:09:41.774Z,0.00
2023-01-15T00:10:41.756Z,0.00
2023-01-15T00:11:41.771Z,0.00
2023-01-15T00:12:41.726Z,0.00
2023-01-15T00:13:41.714Z,0.00
2023-01-15T00:14:41.706Z,0.00
2023-01-15T00:15:41.739Z,0.00
2023-01-15T00:16:41.682Z,0.00
2023-01-15T00:17:41.751Z,0.00
2023-01-15T00:18:42.012Z,0.00
2023-01-15T00:19:41.675Z,0.00
2023-01-15T00:20:41.656Z,0.00
2023-01-15T00:21:41.646Z,0.00
2023-01-15T00:22:41.655Z,0.00
2023-01-15T00:23:41.629Z,0.00
2023-01-15T00:24:41.607Z,0.00
2023-01-15T00:25:41.629Z,0.00
2023-01-15T00:26:41.734Z,0.00
2023-01-15T00:27:41.608Z,0.00
2023-01-15T00:28:41.621Z,0.00
2023-01-15T00:29:41.570Z,0.00
2023-01-15T00:30:42.711Z,0.00
2023-01-15T00:31:42.080Z,0.00
2023-01-15T00:32:41.717Z,0.00
2023-01-15T00:33:42.326Z,0.00
2023-01-15T00:34:41.611Z,0.00
2023-01-15T00:35:42.292Z,0.00
2023-01-15T00:36:41.993Z,0.00
2023-01-15T00:37:42.064Z,0.00
2023-01-15T00:38:41.516Z,0.00
2023-01-15T00:39:41.444Z,0.00
2023-01-15T00:40:41.456Z,0.00
2023-01-15T00:41:41.696Z,0.00
2023-01-15T00:42:41.419Z,0.00
2023-01-15T00:43:41.425Z,0.00
2023-01-15T00:44:41.449Z,0.00
2023-01-15T00:45:41.401Z,0.00
2023-01-15T00:46:41.535Z,0.00
2023-01-15T00:47:41.359Z,0.00
2023-01-15T00:48:41.357Z,0.00
2023-01-15T00:49:41.353Z,0.00
2023-01-15T00:50:41.331Z,0.00
2023-01-15T00:51:41.333Z,0.00
2023-01-15T00:52:41.419Z,0.00
2023-01-15T00:53:41.385Z,0.00
2023-01-15T00:54:41.289Z,0.00
2023-01-15T00:55:41.288Z,0.00
2023-01-15T00:56:41.306Z,0.00
2023-01-15T00:57:41.259Z,0.00
2023-01-15T00:58:41.316Z,0.00
2023-01-15T00:59:41.234Z,0.00
2023-01-15T01:00:41.289Z,0.00
2023-01-15T01:01:41.394Z,0.00
2023-01-15T01:02:41.255Z,0.00
2023-01-15T01:03:41.221Z,0.00
2023-01-15T01:04:41.219Z,0.00
2023-01-15T01:05:41.207Z,0.00
2023-01-15T01:06:41.188Z,0.00
2023-01-15T01:07:41.186Z,0.00
2023-01-15T01:08:41.173Z,0.00
2023-01-15T01:09:41.141Z,0.00
2023-01-15T01:10:41.134Z,0.00
2023-01-15T01:11:41.130Z,0.00
2023-01-15T01:12:41.124Z,0.00
2023-01-15T01:13:41.106Z,0.00
2023-01-15T01:14:41.122Z,0.00
2023-01-15T01:15:41.078Z,0.00
2023-01-15T01:16:41.077Z,0.00
2023-01-15T01:17:41.095Z,0.00
2023-01-15T01:18:41.046Z,0.00
2023-01-15T01:19:41.059Z,0.00
2023-01-15T01:20:41.035Z,0.00
2023-01-15T01:21:41.038Z,0.00
2023-01-15T01:22:41.025Z,0.00
2023-01-15T01:23:41.005Z,0.00
2023-01-15T01:24:41.026Z,0.00
2023-01-15T01:25:41.199Z,0.00
2023-01-15T01:26:40.995Z,0.00
2023-01-15T01:27:40.993Z,0.00
2023-01-15T01:28:40.963Z,0.00
2023-01-15T01:29:41.093Z,0.00
2023-01-15T01:30:40.929Z,0.00
2023-01-15T01:31:41.021Z,0.00
2023-01-15T01:32:40.932Z,0.00
2023-01-15T01:33:40.901Z,0.00
2023-01-15T01:34:40.885Z,0.00
2023-01-15T01:35:40.915Z,0.00
2023-01-15T01:36:40.876Z,0.00
2023-01-15T01:37:40.876Z,0.00
2023-01-15T01:38:40.850Z,0.00
2023-01-15T01:39:40.882Z,0.00
2023-01-15T01:40:40.833Z,0.00
2023-01-15T01:41:40.812Z,0.00
2023-01-15T01:42:40.809Z,0.00
2023-01-15T01:43:40.794Z,0.00
2023-01-15T01:44:40.803Z,0.00
2023-01-15T01:45:40.858Z,0.00
2023-01-15T01:46:40.778Z,0.00
2023-01-15T01:47:40.784Z,0.00
2023-01-15T01:48:40.763Z,0.00
2023-01-15T01:49:40.769Z,0.00
2023-01-15T01:50:40.762Z,0.00
2023-01-15T01:51:40.713Z,0.00
2023-01-15T01:52:40.732Z,0.00
2023-01-15T01:53:40.695Z,0.00
2023-01-15T01:54:40.783Z,0.00
2023-01-15T01:55:40.693Z,0.00
2023-01-15T01:56:40.682Z,0.00
2023-01-15T01:57:40.682Z,0.00
2023-01-15T01:58:40.704Z,0.00
2023-01-15T01:59:40.683Z,0.00
2023-01-15T02:01:58.716Z,0.00
2023-01-15T02:02:59.468Z,0.00
2023-01-15T02:03:59.433Z,0.00
2023-01-15T02:04:59.441Z,0.00
2023-01-15T02:05:59.414Z,0.00
2023-01-15T02:06:59.456Z,0.00
2023-01-15T02:07:59.398Z,0.00
2023-01-15T02:08:59.407Z,0.00
2023-01-15T02:09:59.393Z,0.00
2023-01-15T02:10:59.405Z,0.00
2023-01-15T02:11:59.350Z,0.00
2023-01-15T02:12:59.350Z,0.00
2023-01-15T02:13:59.349Z,0.00
2023-01-15T02:14:59.326Z,0.00
2023-01-15T02:15:59.357Z,0.00
2023-01-15T02:16:59.334Z,0.00
2023-01-15T02:17:59.305Z,0.00
2023-01-15T02:18:59.292Z,0.00
2023-01-15T02:19:59.276Z,0.00
2023-01-15T02:20:59.293Z,0.00
2023-01-15T02:21:59.311Z,0.00
2023-01-15T02:22:59.262Z,0.00
2023-01-15T02:23:59.254Z,0.00
2023-01-15T02:24:59.260Z,0.00
2023-01-15T02:25:59.239Z,0.00
2023-01-15T02:26:59.210Z,0.00
2023-01-15T02:27:59.202Z,0.00
2023-01-15T02:28:59.214Z,0.00
2023-01-15T02:29:59.196Z,0.00
2023-01-15T02:30:59.197Z,0.00
2023-01-15T02:31:59.257Z,0.00
2023-01-15T02:32:59.183Z,0.00
2023-01-15T02:33:59.174Z,0.00
2023-01-15T02:35:00.675Z,0.00
2023-01-15T02:35:59.132Z,0.00
2023-01-15T02:36:59.120Z,0.00
2023-01-15T02:37:59.106Z,0.00
2023-01-15T02:38:59.105Z,0.00
2023-01-15T02:39:59.102Z,0.00
2023-01-15T02:40:59.106Z,0.00
2023-01-15T02:41:59.075Z,0.00
2023-01-15T02:42:59.088Z,0.00
2023-01-15T02:43:59.083Z,0.00
2023-01-15T02:44:59.047Z,0.00
2023-01-15T02:45:59.090Z,0.00
2023-01-15T02:46:59.046Z,0.00
2023-01-15T02:47:59.016Z,0.00
2023-01-15T02:48:59.017Z,0.00
2023-01-15T02:49:58.985Z,0.00
2023-01-15T02:50:59.087Z,0.00
2023-01-15T02:51:58.979Z,0.00
2023-01-15T02:52:58.981Z,0.00
2023-01-15T02:53:58.988Z,0.00
2023-01-15T02:54:58.944Z,0.00
2023-01-15T02:55:58.929Z,0.00
2023-01-15T02:56:58.923Z,0.00
2023-01-15T02:57:58.922Z,0.00
2023-01-15T02:58:58.902Z,0.00
2023-01-15T02:59:58.888Z,0.00
2023-01-15T03:00:58.933Z,0.00
2023-01-15T03:01:58.976Z,0.00
2023-01-15T03:02:58.876Z,0.00
2023-01-15T03:03:58.859Z,0.00
2023-01-15T03:04:58.845Z,0.00
2023-01-15T03:05:58.841Z,0.00
2023-01-15T03:06:58.817Z,0.00
2023-01-15T03:07:58.810Z,0.00
2023-01-15T03:08:58.807Z,0.00
2023-01-15T03:09:58.802Z,0.00
2023-01-15T03:10:58.786Z,0.00
2023-01-15T03:11:58.806Z,0.00
2023-01-15T03:12:58.762Z,0.00
2023-01-15T03:13:58.774Z,0.00
2023-01-15T03:14:58.784Z,0.00
2023-01-15T03:15:58.750Z,0.00
2023-01-15T03:16:58.725Z,0.00
2023-01-15T03:17:58.753Z,0.00
2023-01-15T03:18:58.705Z,0.00
2023-01-15T03:19:58.700Z,0.00
2023-01-15T03:20:59.027Z,0.00
2023-01-15T03:21:58.678Z,0.00
2023-01-15T03:22:58.697Z,0.00
2023-01-15T03:23:58.814Z,0.00
2023-01-15T03:24:58.648Z,0.00
2023-01-15T03:25:58.635Z,0.00
2023-01-15T03:26:58.677Z,0.00
2023-01-15T03:27:58.645Z,0.00
2023-01-15T03:28:58.598Z,0.00
2023-01-15T03:29:58.632Z,0.00
2023-01-15T03:30:58.626Z,0.00
2023-01-15T03:31:58.567Z,0.00
2023-01-15T03:32:58.599Z,0.00
2023-01-15T03:33:58.552Z,0.00
2023-01-15T03:34:58.548Z,0.00
2023-01-15T03:35:58.584Z,0.00
2023-01-15T03:36:58.520Z,0.00
2023-01-15T03:37:58.530Z,0.00
2023-01-15T03:38:58.539Z,0.00
2023-01-15T03:39:58.492Z,0.00
2023-01-15T03:40:58.511Z,0.00
2023-01-15T03:41:58.505Z,0.00
2023-01-15T03:42:58.450Z,0.00
2023-01-15T03:43:58.445Z,0.00
2023-01-15T03:44:58.459Z,0.00
2023-01-15T03:45:58.481Z,0.00
2023-01-15T03:46:58.417Z,0.00
2023-01-15T03:47:58.416Z,0.00
2023-01-15T03:48:58.408Z,0.00
2023-01-15T03:49:58.396Z,0.00
2023-01-15T03:50:58.389Z,0.00
2023-01-15T03:51:58.390Z,0.00
2023-01-15T03:52:58.701Z,0.00
2023-01-15T03:53:58.423Z,0.00
2023-01-15T03:54:58.364Z,0.00
2023-01-15T03:55:58.327Z,0.00
2023-01-15T03:56:58.338Z,0.00
2023-01-15T03:57:58.341Z,0.00
2023-01-15T03:58:58.291Z,0.00
2023-01-15T03:59:58.319Z,0.00
2023-01-15T04:00:58.370Z,0.00
2023-01-15T04:01:58.401Z,0.00
2023-01-15T04:02:58.271Z,0.00
2023-01-15T04:03:58.365Z,0.00
2023-01-15T04:04:58.257Z,0.00
2023-01-15T04:05:58.255Z,0.00
2023-01-15T04:06:58.250Z,0.00
2023-01-15T04:07:58.230Z,0.00
2023-01-15T04:08:58.207Z,0.00
2023-01-15T04:09:58.214Z,0.00
2023-01-15T04:10:58.168Z,0.00
2023-01-15T04:11:58.191Z,0.00
2023-01-15T04:12:58.162Z,0.00
2023-01-15T04:13:58.168Z,0.00
2023-01-15T04:14:58.145Z,0.00
2023-01-15T04:15:58.213Z,0.00
2023-01-15T04:16:58.110Z,0.00
2023-01-15T04:17:58.118Z,0.00
2023-01-15T04:18:58.113Z,0.00
2023-01-15T04:19:58.110Z,0.00
2023-01-15T04:20:58.093Z,0.00
2023-01-15T04:21:58.094Z,0.00
2023-01-15T04:22:58.109Z,0.00
2023-01-15T04:23:58.062Z,0.00
2023-01-15T04:24:58.078Z,0.00
2023-01-15T04:25:58.033Z,0.00
2023-01-15T04:26:58.051Z,0.00
2023-01-15T04:27:58.053Z,0.00
2023-01-15T04:28:58.012Z,0.00
2023-01-15T04:29:58.065Z,0.00
2023-01-15T04:30:58.095Z,0.00
2023-01-15T04:31:58.088Z,0.00
2023-01-15T04:32:58.029Z,0.00
2023-01-15T04:33:57.992Z,0.00
2023-01-15T04:34:57.985Z,0.00
2023-01-15T04:35:57.946Z,0.00
2023-01-15T04:36:57.940Z,0.00
2023-01-15T04:37:57.948Z,0.00
2023-01-15T04:38:57.930Z,0.00
2023-01-15T04:39:57.960Z,0.00
2023-01-15T04:40:57.927Z,0.00
2023-01-15T04:41:57.897Z,0.00
2023-01-15T04:42:57.893Z,0.00
2023-01-15T04:43:57.866Z,0.00
2023-01-15T04:44:57.877Z,0.00
2023-01-15T04:45:57.889Z,0.00
2023-01-15T04:46:57.862Z,0.00
2023-01-15T04:47:57.829Z,0.00
2023-01-15T04:48:57.826Z,0.00
2023-01-15T04:49:57.824Z,0.00
2023-01-15T04:50:57.813Z,0.00
2023-01-15T04:51:58.075Z,0.00
2023-01-15T04:52:57.765Z,0.00
2023-01-15T04:53:57.751Z,0.00
2023-01-15T04:54:57.765Z,0.00
2023-01-15T04:55:57.766Z,0.00
2023-01-15T04:56:57.725Z,0.00
2023-01-15T04:57:57.711Z,0.00
2023-01-15T04:58:57.737Z,0.00
2023-01-15T04:59:57.690Z,0.00
2023-01-15T05:00:57.712Z,0.00
2023-01-15T05:02:04.686Z,0.00
2023-01-15T05:02:57.688Z,0.00
2023-01-15T05:03:57.647Z,0.00
2023-01-15T05:04:57.650Z,0.00
2023-01-15T05:05:57.651Z,0.00
2023-01-15T05:06:57.645Z,0.00
2023-01-15T05:07:57.621Z,0.00
2023-01-15T05:08:57.605Z,0.00
2023-01-15T05:09:57.814Z,0.00
2023-01-15T05:10:57.605Z,0.00
2023-01-15T05:11:57.579Z,0.00
2023-01-15T05:12:57.561Z,0.00
2023-01-15T05:13:57.583Z,0.00
2023-01-15T05:14:57.567Z,0.00
2023-01-15T05:15:57.601Z,0.00
2023-01-15T05:16:57.557Z,0.00
2023-01-15T05:17:57.517Z,0.00
2023-01-15T05:18:57.522Z,0.00
2023-01-15T05:19:57.534Z,0.00
2023-01-15T05:20:57.522Z,0.00
2023-01-15T05:21:57.522Z,0.00
2023-01-15T05:22:57.491Z,0.00
2023-01-15T05:23:57.516Z,0.00
2023-01-15T05:24:57.597Z,0.00
2023-01-15T05:25:57.435Z,0.00
2023-01-15T05:26:57.419Z,0.00
2023-01-15T05:27:57.411Z,0.00
2023-01-15T05:28:57.405Z,0.00
2023-01-15T05:29:57.438Z,0.00
2023-01-15T05:30:57.489Z,0.00
2023-01-15T05:31:57.381Z,0.00
2023-01-15T05:32:57.389Z,0.00
2023-01-15T05:33:57.383Z,0.00
2023-01-15T05:34:57.357Z,0.00
2023-01-15T05:35:57.353Z,0.00
2023-01-15T05:36:57.330Z,0.00
2023-01-15T05:37:57.325Z,0.00
2023-01-15T05:38:57.330Z,0.00
2023-01-15T05:39:57.296Z,0.00
2023-01-15T05:40:57.303Z,0.00
2023-01-15T05:41:57.284Z,0.00
2023-01-15T05:42:57.299Z,0.00
2023-01-15T05:43:57.257Z,0.00
2023-01-15T05:44:57.253Z,0.00
2023-01-15T05:45:57.267Z,0.00
2023-01-15T05:46:57.228Z,0.00
2023-01-15T05:47:57.247Z,0.00
2023-01-15T05:48:57.209Z,0.00
2023-01-15T05:49:57.217Z,0.00
2023-01-15T05:50:57.198Z,0.00
2023-01-15T05:51:57.262Z,0.00
2023-01-15T05:52:57.252Z,0.00
2023-01-15T05:53:57.153Z,0.00
2023-01-15T05:54:57.164Z,0.00
2023-01-15T05:55:57.153Z,0.00
2023-01-15T05:56:57.130Z,0.00
2023-01-15T05:57:57.140Z,0.00
2023-01-15T05:58:57.115Z,0.00
2023-01-15T05:59:57.118Z,0.00
2023-01-15T06:00:57.100Z,0.00
2023-01-15T06:01:57.100Z,0.00
2023-01-15T06:02:57.085Z,0.00
2023-01-15T06:03:57.100Z,0.00
2023-01-15T06:04:57.076Z,0.00
2023-01-15T06:05:57.049Z,0.00
2023-01-15T06:06:57.055Z,0.00
2023-01-15T06:07:57.029Z,0.00
2023-01-15T06:08:57.025Z,0.00
2023-01-15T06:09:57.008Z,0.00
2023-01-15T06:10:57.009Z,0.00
2023-01-15T06:11:56.992Z,0.00
2023-01-15T06:12:56.979Z,0.00
2023-01-15T06:13:56.987Z,0.00
2023-01-15T06:14:56.957Z,0.00
2023-01-15T06:15:56.972Z,0.00
2023-01-15T06:16:56.948Z,0.00
2023-01-15T06:17:56.939Z,0.00
2023-01-15T06:18:56.926Z,0.00
2023-01-15T06:19:56.923Z,0.00
2023-01-15T06:20:56.915Z,0.00
2023-01-15T06:21:56.910Z,0.00
2023-01-15T06:22:56.888Z,0.00
2023-01-15T06:23:56.875Z,0.00
2023-01-15T06:24:56.911Z,0.00
2023-01-15T06:25:56.850Z,0.00
2023-01-15T06:26:56.890Z,0.00
2023-01-15T06:27:56.815Z,0.00
2023-01-15T06:28:56.851Z,0.00
2023-01-15T06:29:56.813Z,0.00
2023-01-15T06:30:56.831Z,0.00
2023-01-15T06:31:56.780Z,0.00
2023-01-15T06:32:56.806Z,0.00
2023-01-15T06:33:56.850Z,0.00
2023-01-15T06:34:56.762Z,0.00
2023-01-15T06:35:56.696Z,1.00
2023-01-15T06:36:56.784Z,0.00
2023-01-15T06:37:56.741Z,0.00
2023-01-15T06:38:56.699Z,1.00
2023-01-15T06:39:56.692Z,1.00
2023-01-15T06:40:56.660Z,2.00
2023-01-15T06:41:56.680Z,2.00
2023-01-15T06:42:56.672Z,3.00
2023-01-15T06:43:56.670Z,3.00
2023-01-15T06:44:56.627Z,2.00
2023-01-15T06:45:56.638Z,4.00
2023-01-15T06:46:56.636Z,8.00
2023-01-15T06:47:56.635Z,11.00
2023-01-15T06:48:56.557Z,9.00
2023-01-15T06:49:56.672Z,11.00
2023-01-15T06:50:56.537Z,11.00
2023-01-15T06:51:56.519Z,13.00
2023-01-15T06:52:56.536Z,16.00
2023-01-15T06:53:56.511Z,23.00
2023-01-15T06:54:56.519Z,23.00
2023-01-15T06:55:56.501Z,28.00
2023-01-15T06:56:56.501Z,37.00
2023-01-15T06:57:56.483Z,34.00
2023-01-15T06:58:56.478Z,51.00
2023-01-15T06:59:56.487Z,59.00
2023-01-15T07:00:56.557Z,61.00
2023-01-15T07:01:56.466Z,73.00
2023-01-15T07:02:56.439Z,83.00
2023-01-15T07:03:56.424Z,88.00
2023-01-15T07:04:56.400Z,83.00
2023-01-15T07:05:56.383Z,92.00
2023-01-15T07:06:56.406Z,96.00
2023-01-15T07:07:56.366Z,92.00
2023-01-15T07:08:56.372Z,98.00
2023-01-15T07:09:56.358Z,101.00
2023-01-15T07:10:56.353Z,104.00
2023-01-15T07:11:56.342Z,116.00
2023-01-15T07:12:56.330Z,134.00
2023-01-15T07:13:56.317Z,156.00
2023-01-15T07:14:56.311Z,185.00
2023-01-15T07:15:56.334Z,207.00
2023-01-15T07:16:56.317Z,228.00
2023-01-15T07:17:56.274Z,239.00
2023-01-15T07:18:56.300Z,240.00
2023-01-15T07:19:56.251Z,266.00
2023-01-15T07:20:56.238Z,305.00
2023-01-15T07:21:56.251Z,332.00
2023-01-15T07:22:56.244Z,366.00
2023-01-15T07:23:56.207Z,372.00
2023-01-15T07:24:56.227Z,367.00
2023-01-15T07:25:56.258Z,382.00
2023-01-15T07:26:56.235Z,386.00
2023-01-15T07:27:56.179Z,421.00
2023-01-15T07:28:56.164Z,459.00
2023-01-15T07:29:56.153Z,500.00
2023-01-15T07:30:56.150Z,509.00
2023-01-15T07:31:56.129Z,431.00
2023-01-15T07:32:56.161Z,397.00
2023-01-15T07:33:56.126Z,446.00
2023-01-15T07:34:56.129Z,633.00
2023-01-15T07:35:56.091Z,713.00
2023-01-15T07:36:56.079Z,689.00
2023-01-15T07:37:56.110Z,741.00
2023-01-15T07:38:56.058Z,665.00
2023-01-15T07:39:56.072Z,704.00
2023-01-15T07:40:56.089Z,733.00
2023-01-15T07:41:56.027Z,718.00
2023-01-15T07:42:56.033Z,600.00
2023-01-15T07:43:56.007Z,611.00
2023-01-15T07:44:56.015Z,607.00
2023-01-15T07:45:56.016Z,567.00
2023-01-15T07:46:56.006Z,596.00
2023-01-15T07:47:55.981Z,531.00
2023-01-15T07:48:55.964Z,590.00
2023-01-15T07:49:55.955Z,746.00
2023-01-15T07:50:55.963Z,700.00
2023-01-15T07:51:55.934Z,791.00
2023-01-15T07:52:55.931Z,752.00
2023-01-15T07:53:55.914Z,777.00
2023-01-15T07:54:55.916Z,793.00
2023-01-15T07:55:55.938Z,725.00
2023-01-15T07:56:55.888Z,750.00
2023-01-15T07:57:55.881Z,714.00
2023-01-15T07:58:55.866Z,693.00
2023-01-15T07:59:55.845Z,637.00
2023-01-15T08:00:55.908Z,604.00
2023-01-15T08:01:56.002Z,684.00
2023-01-15T08:02:55.838Z,652.00
2023-01-15T08:03:55.891Z,626.00
2023-01-15T08:04:55.805Z,451.00
2023-01-15T08:05:56.963Z,313.00
2023-01-15T08:06:55.786Z,251.00
2023-01-15T08:07:55.802Z,164.00
2023-01-15T08:08:55.809Z,185.00
2023-01-15T08:09:55.767Z,186.00
2023-01-15T08:10:55.752Z,249.00
2023-01-15T08:11:55.733Z,279.00
2023-01-15T08:12:57.337Z,230.00
2023-01-15T08:13:55.749Z,232.00
2023-01-15T08:14:55.909Z,314.00
2023-01-15T08:15:55.694Z,378.00
2023-01-15T08:16:55.683Z,387.00
2023-01-15T08:17:55.672Z,483.00
2023-01-15T08:18:55.666Z,550.00
2023-01-15T08:19:55.696Z,770.00
2023-01-15T08:20:55.656Z,773.00
2023-01-15T08:21:55.653Z,679.00
2023-01-15T08:22:55.639Z,731.00
2023-01-15T08:23:55.614Z,750.00
2023-01-15T08:24:55.609Z,804.00
2023-01-15T08:25:55.614Z,994.00
2023-01-15T08:26:55.592Z,1225.00
2023-01-15T08:27:55.658Z,1087.00
2023-01-15T08:28:55.574Z,988.00
2023-01-15T08:29:55.576Z,1017.00
2023-01-15T08:30:55.577Z,976.00
2023-01-15T08:31:55.561Z,971.00
2023-01-15T08:32:55.529Z,947.00
2023-01-15T08:33:55.544Z,1026.00
2023-01-15T08:34:55.525Z,1157.00
2023-01-15T08:35:55.492Z,1187.00
2023-01-15T08:36:56.374Z,1262.00
2023-01-15T08:37:55.488Z,1143.00
2023-01-15T08:38:55.470Z,1303.00
2023-01-15T08:39:55.453Z,1060.00
2023-01-15T08:40:55.455Z,1473.00
2023-01-15T08:41:55.433Z,1090.00
2023-01-15T08:42:56.600Z,1108.00
2023-01-15T08:43:55.445Z,1390.00
2023-01-15T08:44:55.410Z,1389.00
2023-01-15T08:45:55.474Z,1069.00
2023-01-15T08:46:55.407Z,948.00
2023-01-15T08:47:55.377Z,1409.00
2023-01-15T08:48:55.379Z,1412.00
2023-01-15T08:49:55.416Z,1255.00
2023-01-15T08:50:55.357Z,1231.00
2023-01-15T08:51:55.360Z,1396.00
2023-01-15T08:52:55.377Z,1548.00
2023-01-15T08:53:55.322Z,1446.00
2023-01-15T08:54:55.326Z,1375.00
2023-01-15T08:55:55.330Z,1349.00
2023-01-15T08:56:55.314Z,1453.00
2023-01-15T08:57:55.316Z,1414.00
2023-01-15T08:58:55.270Z,1187.00
2023-01-15T08:59:55.378Z,932.00
2023-01-15T09:00:55.285Z,845.00
2023-01-15T09:01:55.404Z,1009.00
2023-01-15T09:02:55.235Z,987.00
2023-01-15T09:03:55.234Z,955.00
2023-01-15T09:04:55.262Z,991.00
2023-01-15T09:05:55.231Z,983.00
2023-01-15T09:06:55.208Z,951.00
2023-01-15T09:07:55.188Z,898.00
2023-01-15T09:08:55.187Z,1009.00
2023-01-15T09:09:55.207Z,1057.00
2023-01-15T09:10:55.165Z,861.00
2023-01-15T09:11:55.166Z,767.00
2023-01-15T09:12:55.144Z,835.00
2023-01-15T09:13:55.132Z,935.00
2023-01-15T09:14:59.292Z,886.00
2023-01-15T09:15:55.139Z,803.00
2023-01-15T09:16:55.145Z,1123.00
2023-01-15T09:17:55.081Z,1347.00
2023-01-15T09:18:55.130Z,1099.00
2023-01-15T09:19:55.070Z,904.00
2023-01-15T09:20:55.059Z,968.00
2023-01-15T09:21:55.054Z,1103.00
2023-01-15T09:22:55.069Z,1178.00
2023-01-15T09:23:55.018Z,1118.00
2023-01-15T09:24:55.018Z,1048.00
2023-01-15T09:25:55.024Z,1044.00
2023-01-15T09:26:54.994Z,1211.00
2023-01-15T09:27:55.036Z,1306.00
2023-01-15T09:28:54.999Z,1278.00
2023-01-15T09:29:55.037Z,1292.00
2023-01-15T09:30:54.971Z,1301.00
2023-01-15T09:31:54.991Z,1160.00
2023-01-15T09:32:54.947Z,1231.00
2023-01-15T09:33:54.963Z,1344.00
2023-01-15T09:34:54.941Z,1395.00
2023-01-15T09:35:54.936Z,1637.00
2023-01-15T09:36:54.923Z,1853.00
2023-01-15T09:37:54.895Z,1551.00
2023-01-15T09:38:54.902Z,1439.00
2023-01-15T09:39:54.908Z,1566.00
2023-01-15T09:40:54.903Z,1678.00
2023-01-15T09:41:57.103Z,1849.00
2023-01-15T09:42:54.842Z,1889.00
2023-01-15T09:43:54.858Z,1872.00
2023-01-15T09:44:54.824Z,1968.00
2023-01-15T09:45:54.815Z,1894.00
2023-01-15T09:46:54.846Z,1677.00
2023-01-15T09:47:54.804Z,1643.00
2023-01-15T09:48:54.780Z,1816.00
2023-01-15T09:49:54.787Z,1666.00
2023-01-15T09:50:54.805Z,1494.00
2023-01-15T09:51:54.750Z,1432.00
2023-01-15T09:52:54.741Z,1539.00
2023-01-15T09:53:54.731Z,1703.00
2023-01-15T09:54:54.785Z,1657.00
2023-01-15T09:55:54.752Z,1689.00
2023-01-15T09:56:54.719Z,1795.00
2023-01-15T09:57:54.690Z,1791.00
2023-01-15T09:58:54.701Z,1664.00
2023-01-15T09:59:54.701Z,1632.00
2023-01-15T10:00:54.675Z,1620.00
2023-01-15T10:01:54.679Z,1640.00
2023-01-15T10:02:54.691Z,1750.00
2023-01-15T10:03:54.685Z,1931.00
2023-01-15T10:04:54.630Z,2099.00
2023-01-15T10:05:54.621Z,2211.00
2023-01-15T10:06:54.644Z,2337.00
2023-01-15T10:07:54.603Z,2625.00
2023-01-15T10:08:54.581Z,2609.00
2023-01-15T10:09:54.602Z,2652.00
2023-01-15T10:10:54.581Z,2692.00
2023-01-15T10:11:54.579Z,2654.00
2023-01-15T10:12:54.578Z,2496.00
2023-01-15T10:13:54.575Z,2464.00
2023-01-15T10:14:54.520Z,2591.00
2023-01-15T10:15:56.430Z,2640.00
2023-01-15T10:16:54.521Z,2593.00
2023-01-15T10:17:54.506Z,2711.00
2023-01-15T10:18:54.492Z,2785.00
2023-01-15T10:19:54.532Z,2738.00
2023-01-15T10:20:54.464Z,2781.00
2023-01-15T10:21:54.476Z,2836.00
2023-01-15T10:22:54.443Z,3004.00
2023-01-15T10:23:54.495Z,3194.00
2023-01-15T10:24:54.445Z,3554.00
2023-01-15T10:25:54.415Z,3852.00
2023-01-15T10:26:54.423Z,4073.00
2023-01-15T10:27:54.439Z,4112.00
2023-01-15T10:28:54.413Z,4257.00
2023-01-15T10:29:54.388Z,4417.00
2023-01-15T10:30:54.387Z,4426.00
2023-01-15T10:31:54.384Z,4235.00
2023-01-15T10:33:02.398Z,3887.00
2023-01-15T10:33:54.387Z,3509.00
2023-01-15T10:34:54.325Z,3391.00
2023-01-15T10:35:54.329Z,3511.00
2023-01-15T10:36:54.314Z,3612.00
2023-01-15T10:37:54.325Z,3606.00
2023-01-15T10:38:54.294Z,3668.00
2023-01-15T10:39:54.282Z,3747.00
2023-01-15T10:40:54.304Z,3666.00
2023-01-15T10:41:54.260Z,3701.00
2023-01-15T10:42:54.267Z,3986.00
2023-01-15T10:43:54.323Z,3152.00
2023-01-15T10:44:54.237Z,3718.00
2023-01-15T10:45:54.288Z,4020.00
2023-01-15T10:46:55.375Z,4319.00
2023-01-15T10:47:54.210Z,4851.00
2023-01-15T10:48:54.203Z,5572.00
2023-01-15T10:49:54.184Z,5546.00
2023-01-15T10:50:54.167Z,5463.00
2023-01-15T10:51:54.176Z,6052.00
2023-01-15T10:52:54.146Z,4937.00
2023-01-15T10:53:54.141Z,4687.00
2023-01-15T10:54:54.129Z,5380.00
2023-01-15T10:55:54.137Z,4865.00
2023-01-15T10:56:54.108Z,5099.00
2023-01-15T10:58:09.074Z,4238.00
2023-01-15T10:58:54.091Z,4443.00
2023-01-15T10:59:54.105Z,4836.00
2023-01-15T11:00:54.067Z,5085.00
2023-01-15T11:01:54.348Z,5205.00
2023-01-15T11:02:54.085Z,5003.00
2023-01-15T11:03:54.039Z,5033.00
2023-01-15T11:04:54.055Z,5195.00
2023-01-15T11:05:54.023Z,5189.00
2023-01-15T11:06:54.012Z,5410.00
2023-01-15T11:08:26.410Z,5405.00
2023-01-15T11:09:11.552Z,5107.00
2023-01-15T11:09:54.009Z,4937.00
2023-01-15T11:10:53.971Z,5165.00
2023-01-15T11:11:53.972Z,5288.00
2023-01-15T11:12:53.952Z,4973.00
2023-01-15T11:13:53.936Z,4460.00
2023-01-15T11:14:53.939Z,4162.00
2023-01-15T11:15:53.986Z,4164.00
2023-01-15T11:16:53.945Z,3883.00
2023-01-15T11:17:53.911Z,3407.00
2023-01-15T11:18:53.895Z,3356.00
2023-01-15T11:19:53.882Z,2837.00
2023-01-15T11:20:53.875Z,3006.00
2023-01-15T11:21:53.898Z,3065.00
2023-01-15T11:22:53.865Z,3119.00
2023-01-15T11:23:53.876Z,2881.00
2023-01-15T11:24:53.844Z,3480.00
2023-01-15T11:25:53.817Z,2968.00
2023-01-15T11:26:53.830Z,3140.00
2023-01-15T11:27:53.817Z,3561.00
2023-01-15T11:28:53.816Z,3648.00
2023-01-15T11:29:53.879Z,3590.00
2023-01-15T11:30:53.861Z,3321.00
2023-01-15T11:31:53.779Z,3274.00
2023-01-15T11:32:53.763Z,3000.00
2023-01-15T11:33:53.745Z,2889.00
2023-01-15T11:34:53.731Z,2837.00
2023-01-15T11:35:53.723Z,2540.00
2023-01-15T11:36:53.741Z,2472.00
2023-01-15T11:37:53.725Z,2028.00
2023-01-15T11:38:53.687Z,2159.00
2023-01-15T11:39:53.688Z,2035.00
2023-01-15T11:40:53.761Z,2186.00
2023-01-15T11:41:53.693Z,2070.00
2023-01-15T11:42:53.666Z,2278.00
2023-01-15T11:43:53.648Z,2148.00
2023-01-15T11:44:53.629Z,2214.00
2023-01-15T11:45:53.625Z,2217.00
2023-01-15T11:46:53.645Z,2682.00
2023-01-15T11:47:53.611Z,2194.00
2023-01-15T11:48:53.608Z,2443.00
2023-01-15T11:49:53.744Z,2492.00
2023-01-15T11:50:53.574Z,2664.00
2023-01-15T11:51:53.563Z,2473.00
2023-01-15T11:52:53.573Z,2606.00
2023-01-15T11:53:53.569Z,2567.00
2023-01-15T11:54:53.546Z,2514.00
2023-01-15T11:55:53.559Z,2167.00
2023-01-15T11:56:53.513Z,1880.00
2023-01-15T11:57:53.511Z,1603.00
2023-01-15T11:58:53.507Z,1561.00
2023-01-15T11:59:53.504Z,1425.00
2023-01-15T12:00:53.508Z,1542.00
2023-01-15T12:01:53.496Z,1433.00
2023-01-15T12:02:53.460Z,1762.00
2023-01-15T12:03:53.532Z,1807.00
2023-01-15T12:04:53.490Z,1530.00
2023-01-15T12:05:53.474Z,1520.00
2023-01-15T12:06:53.438Z,1523.00
2023-01-15T12:07:53.415Z,1610.00
2023-01-15T12:08:53.399Z,1539.00
2023-01-15T12:09:53.405Z,1641.00
2023-01-15T12:10:53.407Z,1563.00
2023-01-15T12:11:53.403Z,1737.00
2023-01-15T12:12:53.370Z,2027.00
2023-01-15T12:13:53.354Z,2345.00
2023-01-15T12:14:53.352Z,2290.00
2023-01-15T12:15:53.361Z,2168.00
2023-01-15T12:16:53.348Z,2270.00
2023-01-15T12:17:53.336Z,2122.00
2023-01-15T12:18:53.313Z,2321.00
2023-01-15T12:19:53.308Z,2348.00
2023-01-15T12:20:53.282Z,2273.00
2023-01-15T12:21:53.275Z,2155.00
2023-01-15T12:22:53.268Z,2163.00
2023-01-15T12:23:53.254Z,2398.00
2023-01-15T12:24:53.252Z,2462.00
2023-01-15T12:25:53.242Z,2472.00
2023-01-15T12:26:53.258Z,2467.00
2023-01-15T12:27:53.222Z,2498.00
2023-01-15T12:28:53.206Z,2608.00
2023-01-15T12:29:53.211Z,2780.00
2023-01-15T12:30:53.182Z,2898.00
2023-01-15T12:31:53.193Z,2970.00
2023-01-15T12:32:53.185Z,3069.00
2023-01-15T12:33:53.169Z,2968.00
2023-01-15T12:34:53.164Z,2946.00
2023-01-15T12:35:53.143Z,2921.00
2023-01-15T12:36:53.138Z,2916.00
2023-01-15T12:37:53.136Z,2872.00
2023-01-15T12:38:53.137Z,2855.00
2023-01-15T12:39:53.107Z,2834.00
2023-01-15T12:40:53.124Z,2744.00
2023-01-15T12:41:53.103Z,2658.00
2023-01-15T12:42:53.060Z,2585.00
2023-01-15T12:43:53.066Z,2440.00
2023-01-15T12:44:53.066Z,2363.00
2023-01-15T12:45:53.034Z,2180.00
2023-01-15T12:46:53.064Z,2310.00
2023-01-15T12:47:53.032Z,2079.00
2023-01-15T12:48:53.019Z,2171.00